createdAt,value
2023-09-17T00:00:51.820Z,97.9
2023-09-17T00:02:06.077Z,98.5
2023-09-17T00:03:20.405Z,98.6
2023-09-17T00:04:34.697Z,98.8
2023-09-17T00:05:48.990Z,98.6
2023-09-17T00:07:03.283Z,98.4
2023-09-17T00:08:17.575Z,98.5
2023-09-17T00:09:31.867Z,98.4
2023-09-17T00:10:46.160Z,98.2
2023-09-17T00:12:00.452Z,98
2023-09-17T00:13:14.745Z,98.9
2023-09-17T00:14:29.037Z,99.4
2023-09-17T00:15:43.330Z,99.1
2023-09-17T00:16:56.603Z,99.5
2023-09-17T00:18:10.931Z,99.1
2023-09-17T00:19:25.224Z,98.7
2023-09-17T00:20:39.516Z,98.2
2023-09-17T00:21:53.809Z,98.4
2023-09-17T00:23:08.101Z,98.9
2023-09-17T00:25:36.686Z,99.6
2023-09-17T00:26:50.978Z,99.7
2023-09-17T00:28:05.271Z,99.8
2023-09-17T00:29:19.564Z,99.7
2023-09-17T00:30:33.856Z,99.7
2023-09-17T00:31:48.149Z,99.3
2023-09-17T00:33:01.457Z,98.8
2023-09-17T00:34:15.750Z,99.1
2023-09-17T00:35:30.001Z,99
2023-09-17T00:36:44.335Z,98.8
2023-09-17T00:37:58.627Z,99.1
2023-09-17T00:39:12.920Z,99
2023-09-17T00:40:27.212Z,99.4
2023-09-17T00:41:41.505Z,100
2023-09-17T00:42:55.752Z,100
2023-09-17T00:44:10.090Z,100
2023-09-17T00:45:24.382Z,100
2023-09-17T00:46:38.675Z,99.8
2023-09-17T00:47:52.967Z,99.7
2023-09-17T00:49:06.276Z,99.7
2023-09-17T00:50:20.569Z,99.5
2023-09-17T00:51:34.861Z,99.3
2023-09-17T00:52:49.153Z,98.9
2023-09-17T00:54:03.446Z,98.7
2023-09-17T00:55:17.738Z,98.4
2023-09-17T00:56:32.031Z,98.2
2023-09-17T00:57:46.323Z,98.6
2023-09-17T00:59:00.616Z,98.4
2023-09-17T01:00:14.909Z,98.1
2023-09-17T01:01:29.201Z,98.3
2023-09-17T01:02:43.495Z,98.5
2023-09-17T01:03:57.787Z,98.4
2023-09-17T01:05:11.096Z,98.3
2023-09-17T01:06:25.388Z,98.5
2023-09-17T01:07:39.681Z,98.3
2023-09-17T01:08:53.973Z,98.7
2023-09-17T01:10:08.266Z,98.5
2023-09-17T01:11:22.559Z,99
2023-09-17T01:12:36.851Z,98.9
2023-09-17T01:13:51.144Z,99
2023-09-17T01:15:05.436Z,98.9
2023-09-17T01:16:19.729Z,98.9
2023-09-17T01:17:34.021Z,99
2023-09-17T01:18:48.314Z,99
2023-09-17T01:20:02.606Z,99.1
2023-09-17T01:21:15.915Z,98.9
2023-09-17T01:22:30.208Z,99
2023-09-17T01:23:44.500Z,99.4
2023-09-17T01:24:58.793Z,99.4
2023-09-17T01:26:13.085Z,99.8
2023-09-17T01:27:27.378Z,99.9
2023-09-17T01:28:41.670Z,99.9
2023-09-17T01:29:55.963Z,99.6
2023-09-17T01:31:10.255Z,99.1
2023-09-17T01:32:24.548Z,99
2023-09-17T01:33:38.841Z,99
2023-09-17T01:34:53.134Z,98.9
2023-09-17T01:36:07.427Z,98.8
2023-09-17T01:37:20.735Z,98.8
2023-09-17T01:38:35.028Z,99.3
2023-09-17T01:39:49.321Z,99.6
2023-09-17T01:41:03.613Z,99.4
2023-09-17T01:42:17.906Z,99.3
2023-09-17T01:43:32.171Z,99
2023-09-17T01:44:46.491Z,99.1
2023-09-17T01:46:00.783Z,99.4
2023-09-17T01:47:15.076Z,99.4
2023-09-17T01:48:29.368Z,99.6
2023-09-17T01:49:43.661Z,99.3
2023-09-17T01:50:57.954Z,99.7
2023-09-17T01:52:12.246Z,99.7
2023-09-17T01:53:25.522Z,99.6
2023-09-17T01:54:39.848Z,99.5
2023-09-17T01:55:54.140Z,99.5
2023-09-17T01:57:08.433Z,99.6
2023-09-17T01:58:22.725Z,99.9
2023-09-17T01:59:37.018Z,100
2023-09-17T02:00:51.310Z,100
2023-09-17T02:02:05.603Z,99.9
2023-09-17T02:03:19.895Z,99.5
2023-09-17T02:04:34.188Z,99.2
2023-09-17T02:05:48.481Z,98.8
2023-09-17T02:07:02.773Z,99.2
2023-09-17T02:08:17.066Z,99.3
2023-09-17T02:09:30.374Z,99.4
2023-09-17T02:10:44.667Z,99.9
2023-09-17T02:11:58.959Z,100
2023-09-17T02:13:13.252Z,100
2023-09-17T02:14:27.544Z,100
2023-09-17T02:15:41.837Z,100
2023-09-17T02:16:56.129Z,99.9
2023-09-17T02:18:10.422Z,99.5
2023-09-17T02:19:24.714Z,99.3
2023-09-17T02:20:39.007Z,99.4
2023-09-17T02:21:53.299Z,99.3
2023-09-17T02:23:07.592Z,99.3
2023-09-17T02:24:21.884Z,99.5
2023-09-17T02:25:35.193Z,99.9
2023-09-17T02:26:49.486Z,100
2023-09-17T02:28:03.778Z,100
2023-09-17T02:29:18.071Z,100
2023-09-17T02:30:32.363Z,100
2023-09-17T02:31:46.655Z,100
2023-09-17T02:33:00.948Z,100
2023-09-17T02:34:15.240Z,99.9
2023-09-17T02:35:29.533Z,99.8
2023-09-17T02:36:43.826Z,100
2023-09-17T02:37:58.118Z,100
2023-09-17T02:39:12.411Z,100
2023-09-17T02:40:26.703Z,100
2023-09-17T02:41:40.012Z,100
2023-09-17T02:42:54.304Z,100
2023-09-17T02:44:08.597Z,100
2023-09-17T02:45:22.889Z,100
2023-09-17T02:46:37.182Z,100
2023-09-17T02:47:51.475Z,100
2023-09-17T02:49:04.789Z,100
2023-09-17T02:50:19.081Z,99.9
2023-09-17T02:51:33.374Z,100
2023-09-17T02:52:47.666Z,100
2023-09-17T02:54:01.959Z,100
2023-09-17T02:55:16.251Z,100
2023-09-17T02:56:30.544Z,100
2023-09-17T02:57:44.836Z,100
2023-09-17T02:58:59.129Z,100
2023-09-17T03:00:13.422Z,100
2023-09-17T03:01:27.714Z,100
2023-09-17T03:02:42.007Z,100
2023-09-17T03:03:56.299Z,100
2023-09-17T03:05:09.608Z,100
2023-09-17T03:06:23.900Z,99.9
2023-09-17T03:07:38.193Z,99.9
2023-09-17T03:08:52.485Z,100
2023-09-17T03:10:06.778Z,100
2023-09-17T03:11:21.071Z,100
2023-09-17T03:12:35.330Z,100
2023-09-17T03:13:49.656Z,100
2023-09-17T03:15:03.948Z,100
2023-09-17T03:16:18.241Z,99.9
2023-09-17T03:17:32.533Z,100
2023-09-17T03:18:46.799Z,100
2023-09-17T03:20:01.120Z,100
2023-09-17T03:21:14.382Z,100
2023-09-17T03:22:28.721Z,100
2023-09-17T03:23:43.013Z,100
2023-09-17T03:24:57.306Z,100
2023-09-17T03:26:11.598Z,100
2023-09-17T03:27:25.891Z,100
2023-09-17T03:28:40.183Z,100
2023-09-17T03:29:54.476Z,100
2023-09-17T03:31:08.769Z,100
2023-09-17T03:32:23.061Z,100
2023-09-17T03:33:37.307Z,100
2023-09-17T03:34:51.646Z,100
2023-09-17T03:36:05.939Z,100
2023-09-17T03:37:19.248Z,100
2023-09-17T03:38:33.540Z,100
2023-09-17T03:39:47.833Z,100
2023-09-17T03:41:02.125Z,100
2023-09-17T03:42:16.418Z,100
2023-09-17T03:43:30.678Z,100
2023-09-17T03:44:45.003Z,100
2023-09-17T03:45:59.296Z,100
2023-09-17T03:47:13.544Z,100
2023-09-17T03:48:27.882Z,100
2023-09-17T03:49:42.144Z,100
2023-09-17T03:50:56.467Z,100
2023-09-17T03:52:10.759Z,100
2023-09-17T03:53:24.068Z,100
2023-09-17T03:54:38.361Z,100
2023-09-17T03:55:52.653Z,100
2023-09-17T03:57:06.946Z,100
2023-09-17T03:58:21.238Z,100
2023-09-17T03:59:35.531Z,100
2023-09-17T04:00:49.823Z,100
2023-09-17T04:02:04.116Z,100
2023-09-17T04:03:18.409Z,100
2023-09-17T04:04:32.701Z,100
2023-09-17T04:05:46.994Z,100
2023-09-17T04:07:01.287Z,100
2023-09-17T04:08:15.579Z,100
2023-09-17T04:09:28.888Z,100
2023-09-17T04:10:43.181Z,100
2023-09-17T04:11:57.419Z,100
2023-09-17T04:13:11.712Z,100
2023-09-17T04:14:26.005Z,100
2023-09-17T04:15:40.255Z,100
2023-09-17T04:16:54.493Z,100
2023-09-17T04:18:08.786Z,100
2023-09-17T04:19:23.036Z,100
2023-09-17T04:20:37.275Z,100
2023-09-17T04:21:51.524Z,100
2023-09-17T04:23:05.763Z,100
2023-09-17T04:24:20.002Z,100
2023-09-17T04:25:33.257Z,100
2023-09-17T04:26:47.495Z,100
2023-09-17T04:28:01.734Z,100
2023-09-17T04:29:15.973Z,100
2023-09-17T04:30:30.211Z,100
2023-09-17T04:31:44.450Z,100
2023-09-17T04:32:58.689Z,100
2023-09-17T04:34:12.927Z,100
2023-09-17T04:35:27.166Z,100
2023-09-17T04:36:41.405Z,100
2023-09-17T04:37:55.643Z,100
2023-09-17T04:39:09.882Z,100
2023-09-17T04:40:24.120Z,100
2023-09-17T04:41:37.375Z,100
2023-09-17T04:42:51.614Z,100
2023-09-17T04:44:05.852Z,100
2023-09-17T04:45:20.091Z,100
2023-09-17T04:46:34.330Z,100
2023-09-17T04:47:48.568Z,100
2023-09-17T04:49:02.807Z,100
2023-09-17T04:50:17.045Z,100
2023-09-17T04:51:31.284Z,100
2023-09-17T04:52:45.523Z,100
2023-09-17T04:53:59.761Z,100
2023-09-17T04:55:14.000Z,100
2023-09-17T04:56:28.239Z,100
2023-09-17T04:57:41.493Z,100
2023-09-17T04:58:55.732Z,100
2023-09-17T05:00:09.971Z,100
2023-09-17T05:01:24.209Z,100
2023-09-17T05:02:38.448Z,100
2023-09-17T05:03:52.686Z,100
2023-09-17T05:05:06.925Z,100
2023-09-17T05:06:21.163Z,100
2023-09-17T05:07:35.402Z,100
2023-09-17T05:08:49.641Z,100
2023-09-17T05:10:03.879Z,100
2023-09-17T05:11:18.118Z,100
2023-09-17T05:12:32.356Z,100
2023-09-17T05:13:45.611Z,100
2023-09-17T05:14:59.850Z,100
2023-09-17T05:16:14.088Z,100
2023-09-17T05:17:28.327Z,100
2023-09-17T05:18:42.566Z,100
2023-09-17T05:19:56.805Z,100
2023-09-17T05:21:11.043Z,100
2023-09-17T05:22:25.282Z,100
2023-09-17T05:23:39.520Z,100
2023-09-17T05:24:53.759Z,100
2023-09-17T05:26:07.997Z,100
2023-09-17T05:27:22.236Z,100
2023-09-17T05:28:36.475Z,100
2023-09-17T05:29:49.730Z,100
2023-09-17T05:31:03.968Z,100
2023-09-17T05:32:18.207Z,100
2023-09-17T05:33:32.445Z,100
2023-09-17T05:34:46.684Z,100
2023-09-17T05:36:00.923Z,100
2023-09-17T05:37:15.162Z,100
2023-09-17T05:38:29.401Z,100
2023-09-17T05:39:43.640Z,100
2023-09-17T05:40:57.878Z,100
2023-09-17T05:42:12.117Z,100
2023-09-17T05:43:26.355Z,100
2023-09-17T05:44:40.594Z,100
2023-09-17T05:45:53.849Z,100
2023-09-17T05:47:08.087Z,100
2023-09-17T05:48:22.326Z,100
2023-09-17T05:49:36.564Z,100
2023-09-17T05:50:50.803Z,100
2023-09-17T05:52:05.042Z,100
2023-09-17T05:53:19.280Z,100
2023-09-17T05:54:33.519Z,100
2023-09-17T05:55:47.757Z,100
2023-09-17T05:57:01.996Z,99.1
2023-09-17T05:58:16.234Z,99.5
2023-09-17T05:59:30.473Z,99.5
2023-09-17T06:00:44.712Z,98.7
2023-09-17T06:01:57.966Z,98
2023-09-17T06:03:12.205Z,97.6
2023-09-17T06:04:26.443Z,97.9
2023-09-17T06:05:40.682Z,97.3
2023-09-17T06:06:54.920Z,97.8
2023-09-17T06:08:09.159Z,96.9
2023-09-17T06:09:23.398Z,96.5
2023-09-17T06:10:37.636Z,94.2
2023-09-17T06:11:51.875Z,94
2023-09-17T06:13:06.077Z,94
2023-09-17T06:14:20.352Z,94
2023-09-17T06:15:34.590Z,93.2
2023-09-17T06:16:48.829Z,91.7
2023-09-17T06:18:02.054Z,91.5
2023-09-17T06:19:16.322Z,90.9
2023-09-17T06:20:30.562Z,90.9
2023-09-17T06:21:44.800Z,88.7
2023-09-17T06:22:59.039Z,87.9
2023-09-17T06:24:13.232Z,89.1
2023-09-17T06:25:27.487Z,88.6
2023-09-17T06:26:41.755Z,88
2023-09-17T06:27:55.993Z,86.4
2023-09-17T06:29:10.232Z,85.8
2023-09-17T06:30:24.470Z,85.5
2023-09-17T06:31:38.709Z,85.3
2023-09-17T06:32:52.905Z,85
2023-09-17T06:34:06.202Z,85
2023-09-17T06:35:20.409Z,84.1
2023-09-17T06:36:34.679Z,85
2023-09-17T06:37:48.918Z,84.9
2023-09-17T06:39:03.157Z,84.9
2023-09-17T06:40:17.395Z,82.7
2023-09-17T06:41:31.634Z,83.4
2023-09-17T06:42:45.827Z,82.8
2023-09-17T06:44:00.111Z,82.7
2023-09-17T06:45:14.350Z,81.9
2023-09-17T06:46:28.588Z,81.4
2023-09-17T06:47:42.799Z,80.9
2023-09-17T06:48:57.033Z,80.4
2023-09-17T06:50:10.288Z,80.6
2023-09-17T06:51:24.558Z,80.6
2023-09-17T06:52:38.797Z,78.9
2023-09-17T06:53:53.035Z,78.6
2023-09-17T06:55:07.245Z,79.9
2023-09-17T06:56:21.512Z,79.5
2023-09-17T06:57:34.772Z,79.3
2023-09-17T06:58:49.011Z,77.6
2023-09-17T07:00:03.249Z,77.4
2023-09-17T07:01:17.448Z,77.5
2023-09-17T07:02:31.726Z,75.6
2023-09-17T07:03:45.965Z,76.3
2023-09-17T07:05:00.159Z,76.6
2023-09-17T07:06:14.442Z,75.1
2023-09-17T07:07:28.681Z,76
2023-09-17T07:08:42.919Z,76.2
2023-09-17T07:09:57.118Z,75.6
2023-09-17T07:11:11.396Z,75.2
2023-09-17T07:12:25.591Z,75
2023-09-17T07:13:38.890Z,74.6
2023-09-17T07:14:53.128Z,76.1
2023-09-17T07:16:07.367Z,74.1
2023-09-17T07:17:21.605Z,73.2
2023-09-17T07:18:35.812Z,74.1
2023-09-17T07:19:50.083Z,72.9
2023-09-17T07:21:04.292Z,72.5
2023-09-17T07:22:18.560Z,71.9
2023-09-17T07:23:32.798Z,73.6
2023-09-17T07:24:46.992Z,72.9
2023-09-17T07:26:01.275Z,73.2
2023-09-17T07:27:15.514Z,73.1
2023-09-17T07:28:29.753Z,72.1
2023-09-17T07:29:43.007Z,72.9
2023-09-17T07:30:57.246Z,72.6
2023-09-17T07:32:11.452Z,71.8
2023-09-17T07:33:25.723Z,71.7
2023-09-17T07:34:39.961Z,72.1
2023-09-17T07:35:54.200Z,72.9
2023-09-17T07:37:08.438Z,70.4
2023-09-17T07:38:22.637Z,70.6
2023-09-17T07:39:36.916Z,68.8
2023-09-17T07:40:51.154Z,69
2023-09-17T07:42:05.393Z,69.9
2023-09-17T07:43:19.631Z,70.4
2023-09-17T07:44:33.870Z,71.5
2023-09-17T07:45:47.124Z,70.8
2023-09-17T07:47:01.363Z,71.5
2023-09-17T07:48:15.601Z,71.5
2023-09-17T07:49:29.840Z,71.8
2023-09-17T07:50:44.079Z,70.2
2023-09-17T07:51:58.317Z,71
2023-09-17T07:53:12.555Z,71.3
2023-09-17T07:54:26.794Z,70.3
2023-09-17T07:55:41.032Z,70.8
2023-09-17T07:56:55.271Z,71.4
2023-09-17T07:58:09.510Z,72
2023-09-17T07:59:23.748Z,70.9
2023-09-17T08:00:37.987Z,70.8
2023-09-17T08:01:51.242Z,72.3
2023-09-17T08:03:05.480Z,69.9
2023-09-17T08:04:19.719Z,69.4
2023-09-17T08:05:33.957Z,70.5
2023-09-17T08:06:48.196Z,70.2
2023-09-17T08:08:02.434Z,72.4
2023-09-17T08:09:16.673Z,71.3
2023-09-17T08:10:30.868Z,71.6
2023-09-17T08:11:45.150Z,71.9
2023-09-17T08:12:59.389Z,70.1
2023-09-17T08:14:13.627Z,68.8
2023-09-17T08:15:27.866Z,69.6
2023-09-17T08:16:42.104Z,70.1
2023-09-17T08:17:55.359Z,68.9
2023-09-17T08:19:09.598Z,70
2023-09-17T08:20:23.836Z,71.8
2023-09-17T08:21:38.076Z,69.5
2023-09-17T08:22:52.314Z,69.1
2023-09-17T08:24:06.553Z,67.7
2023-09-17T08:25:20.791Z,68.1
2023-09-17T08:26:35.030Z,68
2023-09-17T08:27:49.229Z,66.1
2023-09-17T08:29:03.507Z,67
2023-09-17T08:30:17.746Z,67.1
2023-09-17T08:31:31.985Z,66.7
2023-09-17T08:32:46.223Z,66.4
2023-09-17T08:33:59.478Z,66.9
2023-09-17T08:35:13.717Z,67.2
2023-09-17T08:36:27.955Z,67.9
2023-09-17T08:37:42.194Z,67.8
2023-09-17T08:38:56.433Z,66.4
2023-09-17T08:40:10.671Z,68.2
2023-09-17T08:41:24.910Z,68.4
2023-09-17T08:42:39.149Z,66.5
2023-09-17T08:43:53.387Z,67
2023-09-17T08:45:07.626Z,67.6
2023-09-17T08:46:21.864Z,67
2023-09-17T08:47:36.103Z,67.3
2023-09-17T08:48:50.342Z,65.1
2023-09-17T08:50:03.596Z,66.2
2023-09-17T08:51:17.835Z,66.2
2023-09-17T08:52:32.073Z,67.1
2023-09-17T08:53:46.274Z,65.7
2023-09-17T08:55:00.551Z,66.6
2023-09-17T08:56:14.789Z,66.4
2023-09-17T08:57:29.028Z,66.5
2023-09-17T08:58:43.266Z,64.7
2023-09-17T08:59:57.505Z,66.8
2023-09-17T09:01:11.702Z,64.8
2023-09-17T09:02:25.982Z,65.4
2023-09-17T09:03:40.221Z,63.2
2023-09-17T09:04:54.459Z,62.2
2023-09-17T09:06:07.714Z,63.1
2023-09-17T09:07:21.952Z,63.4
2023-09-17T09:08:36.191Z,62.5
2023-09-17T09:09:50.394Z,61.5
2023-09-17T09:11:04.668Z,62.3
2023-09-17T09:12:18.907Z,61.9
2023-09-17T09:13:33.146Z,61.5
2023-09-17T09:14:47.385Z,60.5
2023-09-17T09:16:01.623Z,60
2023-09-17T09:17:15.862Z,58.8
2023-09-17T09:18:30.101Z,59.1
2023-09-17T09:19:44.339Z,60.7
2023-09-17T09:20:58.578Z,62
2023-09-17T09:22:11.833Z,60.5
2023-09-17T09:23:26.071Z,61.8
2023-09-17T09:24:40.310Z,61.4
2023-09-17T09:25:54.549Z,61
2023-09-17T09:27:08.788Z,62.1
2023-09-17T09:28:23.026Z,60.8
2023-09-17T09:29:37.265Z,62.7
2023-09-17T09:30:51.504Z,58
2023-09-17T09:32:05.742Z,58.6
2023-09-17T09:33:19.981Z,56.3
2023-09-17T09:34:34.220Z,59.8
2023-09-17T09:35:48.459Z,58.7
2023-09-17T09:37:02.697Z,57.5
2023-09-17T09:38:15.952Z,61
2023-09-17T09:39:30.191Z,56.3
2023-09-17T09:40:44.429Z,57.4
2023-09-17T09:41:58.668Z,56.1
2023-09-17T09:43:12.907Z,54
2023-09-17T09:44:27.145Z,54.4
2023-09-17T09:45:41.358Z,56.5
2023-09-17T09:46:55.623Z,55.4
2023-09-17T09:48:09.862Z,55.1
2023-09-17T09:49:24.100Z,55.9
2023-09-17T09:50:38.339Z,56.5
2023-09-17T09:51:52.577Z,57.1
2023-09-17T09:53:06.816Z,57.8
2023-09-17T09:54:20.071Z,58.5
2023-09-17T09:55:34.309Z,56.4
2023-09-17T09:56:48.548Z,55.1
2023-09-17T09:58:02.787Z,55.4
2023-09-17T09:59:17.026Z,55.9
2023-09-17T10:00:31.264Z,53.7
2023-09-17T10:01:45.503Z,55.5
2023-09-17T10:02:59.705Z,56.6
2023-09-17T10:04:13.980Z,54.9
2023-09-17T10:05:28.219Z,55.1
2023-09-17T10:06:42.457Z,56.2
2023-09-17T10:07:56.667Z,56.3
2023-09-17T10:09:10.898Z,57.4
2023-09-17T10:10:24.191Z,57.2
2023-09-17T10:11:38.430Z,56.5
2023-09-17T10:12:52.668Z,57.1
2023-09-17T10:14:06.908Z,56.7
2023-09-17T10:15:21.147Z,54.2
2023-09-17T10:16:35.385Z,56.4
2023-09-17T10:17:49.624Z,54.4
2023-09-17T10:19:03.863Z,54.3
2023-09-17T10:20:18.102Z,54.5
2023-09-17T10:21:32.340Z,53.9
2023-09-17T10:22:46.534Z,54.5
2023-09-17T10:24:00.818Z,53.5
2023-09-17T10:25:15.056Z,55.6
2023-09-17T10:26:28.311Z,54.4
2023-09-17T10:27:42.550Z,53.4
2023-09-17T10:28:56.788Z,54
2023-09-17T10:30:11.027Z,52.2
2023-09-17T10:31:25.266Z,55
2023-09-17T10:32:39.504Z,52.9
2023-09-17T10:33:53.743Z,53
2023-09-17T10:35:07.982Z,53.3
2023-09-17T10:36:22.220Z,54.8
2023-09-17T10:37:36.459Z,53.4
2023-09-17T10:38:50.698Z,52
2023-09-17T10:40:04.937Z,53.1
2023-09-17T10:41:19.175Z,53.9
2023-09-17T10:42:32.430Z,52.8
2023-09-17T10:43:46.669Z,53.4
2023-09-17T10:45:00.907Z,54.7
2023-09-17T10:46:15.146Z,54.8
2023-09-17T10:47:29.385Z,54.5
2023-09-17T10:48:43.623Z,51.6
2023-09-17T10:49:57.862Z,54.7
2023-09-17T10:51:12.101Z,53
2023-09-17T10:52:26.340Z,54.5
2023-09-17T10:53:40.579Z,50.3
2023-09-17T10:54:54.817Z,53
2023-09-17T10:56:09.056Z,52.1
2023-09-17T10:57:23.295Z,51.5
2023-09-17T10:58:36.550Z,50.2
2023-09-17T10:59:50.789Z,50.6
2023-09-17T11:01:05.027Z,51.6
2023-09-17T11:02:19.266Z,51.5
2023-09-17T11:03:33.505Z,54.3
2023-09-17T11:04:47.744Z,53
2023-09-17T11:06:01.004Z,52.7
2023-09-17T11:07:15.243Z,51.6
2023-09-17T11:08:29.481Z,54.5
2023-09-17T11:09:43.720Z,53.5
2023-09-17T11:10:57.959Z,53.6
2023-09-17T11:12:12.198Z,51.9
2023-09-17T11:13:26.437Z,51.4
2023-09-17T11:14:40.676Z,50.8
2023-09-17T11:15:54.915Z,52.1
2023-09-17T11:17:09.154Z,49
2023-09-17T11:18:23.393Z,47.7
2023-09-17T11:19:37.631Z,47.8
2023-09-17T11:20:51.871Z,49
2023-09-17T11:22:05.109Z,48.4
2023-09-17T11:23:19.365Z,48.3
2023-09-17T11:24:33.604Z,50.1
2023-09-17T11:25:47.842Z,49.7
2023-09-17T11:27:02.081Z,49.3
2023-09-17T11:28:16.320Z,51.7
2023-09-17T11:29:30.559Z,50.6
2023-09-17T11:30:44.797Z,50.4
2023-09-17T11:31:59.036Z,52
2023-09-17T11:33:13.275Z,49.7
2023-09-17T11:34:27.514Z,48.8
2023-09-17T11:35:41.753Z,50.2
2023-09-17T11:36:55.991Z,51.8
2023-09-17T11:38:09.247Z,51.6
2023-09-17T11:39:23.486Z,49.5
2023-09-17T11:40:37.724Z,50.2
2023-09-17T11:41:51.963Z,49.6
2023-09-17T11:43:06.188Z,50.3
2023-09-17T11:44:20.441Z,50
2023-09-17T11:45:34.680Z,48.5
2023-09-17T11:46:48.919Z,50
2023-09-17T11:48:03.158Z,50.5
2023-09-17T11:49:17.397Z,52.5
2023-09-17T11:50:31.636Z,50.8
2023-09-17T11:51:45.875Z,51.3
2023-09-17T11:53:00.114Z,49
2023-09-17T11:54:13.369Z,47.2
2023-09-17T11:55:27.608Z,48.4
2023-09-17T11:56:41.847Z,47.1
2023-09-17T11:57:56.086Z,46.8
2023-09-17T11:59:10.319Z,49.7
2023-09-17T12:00:24.558Z,49
2023-09-17T12:01:38.803Z,47.5
2023-09-17T12:02:53.042Z,47.4
2023-09-17T12:04:07.280Z,48
2023-09-17T12:05:21.519Z,46
2023-09-17T12:06:35.759Z,48.4
2023-09-17T12:07:49.998Z,50.4
2023-09-17T12:09:04.237Z,47.8
2023-09-17T12:10:17.492Z,47.7
2023-09-17T12:11:31.731Z,45.7
2023-09-17T12:12:45.970Z,43.7
2023-09-17T12:14:00.209Z,44.6
2023-09-17T12:15:14.436Z,45.3
2023-09-17T12:16:28.686Z,44.2
2023-09-17T12:17:42.926Z,47.1
2023-09-17T12:18:57.165Z,49.5
2023-09-17T12:20:11.404Z,43.9
2023-09-17T12:21:25.643Z,45.1
2023-09-17T12:22:39.882Z,44.6
2023-09-17T12:23:54.121Z,46.6
2023-09-17T12:25:08.359Z,46.1
2023-09-17T12:26:21.611Z,45.5
2023-09-17T12:27:35.854Z,44.1
2023-09-17T12:28:50.093Z,45.8
2023-09-17T12:30:04.331Z,45
2023-09-17T12:31:18.570Z,47.9
2023-09-17T12:32:32.809Z,44
2023-09-17T12:33:47.048Z,46.3
2023-09-17T12:35:01.286Z,43.7
2023-09-17T12:36:15.525Z,43.2
2023-09-17T12:37:29.764Z,44.2
2023-09-17T12:38:44.003Z,43.9
2023-09-17T12:39:58.242Z,43.4
2023-09-17T12:41:12.481Z,42.5
2023-09-17T12:42:25.736Z,39.9
2023-09-17T12:43:39.975Z,41.8
2023-09-17T12:44:54.215Z,41
2023-09-17T12:46:08.453Z,42.3
2023-09-17T12:47:22.692Z,42.3
2023-09-17T12:48:36.921Z,42.5
2023-09-17T12:49:51.170Z,41.1
2023-09-17T12:51:05.409Z,42.4
2023-09-17T12:52:19.623Z,43.6
2023-09-17T12:53:33.886Z,44.2
2023-09-17T12:54:48.125Z,46.4
2023-09-17T12:56:02.363Z,43
2023-09-17T12:57:16.602Z,42.1
2023-09-17T12:58:29.857Z,43
2023-09-17T12:59:44.096Z,41.4
2023-09-17T13:00:58.335Z,42.5
2023-09-17T13:02:12.574Z,42.7
2023-09-17T13:03:26.813Z,44.1
2023-09-17T13:04:41.051Z,41.4
2023-09-17T13:05:55.290Z,45.4
2023-09-17T13:07:09.529Z,44.3
2023-09-17T13:08:23.768Z,41.8
2023-09-17T13:09:38.007Z,42.5
2023-09-17T13:10:52.246Z,41.1
2023-09-17T13:12:06.485Z,41.1
2023-09-17T13:13:20.723Z,40
2023-09-17T13:14:33.978Z,42.4
2023-09-17T13:15:48.217Z,41.5
2023-09-17T13:17:02.456Z,41.8
2023-09-17T13:18:16.694Z,43.2
2023-09-17T13:19:30.933Z,42.5
2023-09-17T13:20:45.172Z,40.9
2023-09-17T13:21:59.411Z,41
2023-09-17T13:23:13.649Z,41.1
2023-09-17T13:24:27.888Z,40.5
2023-09-17T13:25:42.127Z,43.2
2023-09-17T13:26:56.365Z,40.2
2023-09-17T13:28:10.604Z,40.3
2023-09-17T13:29:24.843Z,41.5
2023-09-17T13:30:39.081Z,42
2023-09-17T13:31:53.321Z,41.1
2023-09-17T13:33:06.576Z,41.5
2023-09-17T13:34:20.815Z,40.8
2023-09-17T13:35:35.053Z,39.9
2023-09-17T13:36:49.292Z,40.3
2023-09-17T13:38:03.531Z,38.9
2023-09-17T13:39:17.769Z,40.4
2023-09-17T13:40:32.008Z,40
2023-09-17T13:41:46.225Z,39.4
2023-09-17T13:43:00.486Z,41.4
2023-09-17T13:44:14.724Z,41
2023-09-17T13:45:28.963Z,41
2023-09-17T13:46:43.201Z,40
2023-09-17T13:47:57.440Z,41
2023-09-17T13:49:11.679Z,40.6
2023-09-17T13:50:25.917Z,42.5
2023-09-17T13:51:39.172Z,41.5
2023-09-17T13:52:53.411Z,42.3
2023-09-17T13:54:07.650Z,41.1
2023-09-17T13:55:21.888Z,39.7
2023-09-17T13:56:36.127Z,40
2023-09-17T13:57:50.366Z,41.1
2023-09-17T13:59:04.604Z,40.7
2023-09-17T14:00:18.843Z,39.9
2023-09-17T14:01:33.081Z,39.6
2023-09-17T14:02:47.320Z,38.9
2023-09-17T14:04:01.559Z,38.9
2023-09-17T14:05:15.798Z,40.2
2023-09-17T14:06:30.036Z,40.8
2023-09-17T14:07:43.000Z,41
2023-09-17T14:08:57.530Z,39.6
2023-09-17T14:10:11.768Z,40.3
2023-09-17T14:11:26.007Z,41.7
2023-09-17T14:12:40.246Z,39.4
2023-09-17T14:13:54.484Z,39.3
2023-09-17T14:15:08.691Z,38.6
2023-09-17T14:16:22.962Z,38.6
2023-09-17T14:17:37.201Z,41
2023-09-17T14:18:51.439Z,38.7
2023-09-17T14:20:05.678Z,40.6
2023-09-17T14:21:19.917Z,40.4
2023-09-17T14:22:34.155Z,40.1
2023-09-17T14:23:47.410Z,39.3
2023-09-17T14:25:01.650Z,38.2
2023-09-17T14:26:15.889Z,40
2023-09-17T14:27:30.127Z,39.3
2023-09-17T14:28:44.366Z,40.4
2023-09-17T14:29:58.588Z,39
2023-09-17T14:31:12.843Z,40.8
2023-09-17T14:32:27.082Z,39.5
2023-09-17T14:33:41.320Z,41.2
2023-09-17T14:34:55.559Z,41
2023-09-17T14:36:09.798Z,41.6
2023-09-17T14:37:24.036Z,44.1
2023-09-17T14:38:38.275Z,41.4
2023-09-17T14:39:51.530Z,42.6
2023-09-17T14:41:05.768Z,42
2023-09-17T14:42:20.007Z,42.3
2023-09-17T14:43:34.246Z,42.4
2023-09-17T14:44:48.485Z,43
2023-09-17T14:46:02.724Z,42.8
2023-09-17T14:47:16.963Z,41.2
2023-09-17T14:48:31.201Z,41.6
2023-09-17T14:49:45.440Z,42.1
2023-09-17T14:50:59.679Z,44.5
2023-09-17T14:52:13.897Z,42.1
2023-09-17T14:53:28.156Z,42.6
2023-09-17T14:54:42.396Z,42.5
2023-09-17T14:55:56.634Z,45.1
2023-09-17T14:57:09.889Z,43.9
2023-09-17T14:58:24.128Z,42.3
2023-09-17T14:59:38.366Z,43.3
2023-09-17T15:00:52.605Z,43.4
2023-09-17T15:02:06.843Z,41.5
2023-09-17T15:03:21.082Z,42.4
2023-09-17T15:04:35.321Z,43
2023-09-17T15:05:49.560Z,42.2
2023-09-17T15:07:03.767Z,43.8
2023-09-17T15:08:18.038Z,42.1
2023-09-17T15:09:32.276Z,43.7
2023-09-17T15:10:46.515Z,44.1
2023-09-17T15:12:00.754Z,44.4
2023-09-17T15:13:14.008Z,44.3
2023-09-17T15:14:27.268Z,43.9
2023-09-17T15:15:41.507Z,46
2023-09-17T15:16:55.746Z,47
2023-09-17T15:18:09.985Z,46.8
2023-09-17T15:19:24.224Z,44.2
2023-09-17T15:20:38.463Z,47.9
2023-09-17T15:21:52.702Z,47.8
2023-09-17T15:23:06.941Z,45.5
2023-09-17T15:24:21.179Z,44.5
2023-09-17T15:25:35.418Z,45.3
2023-09-17T15:26:49.657Z,45.2
2023-09-17T15:28:03.896Z,46.5
2023-09-17T15:29:18.135Z,46.9
2023-09-17T15:30:31.390Z,46
2023-09-17T15:31:45.629Z,46.4
2023-09-17T15:32:59.868Z,45.9
2023-09-17T15:34:14.107Z,46.2
2023-09-17T15:35:28.346Z,46.7
2023-09-17T15:36:42.585Z,47.8
2023-09-17T15:37:56.824Z,48
2023-09-17T15:39:11.062Z,47.3
2023-09-17T15:40:25.301Z,47.5
2023-09-17T15:41:39.541Z,47.5
2023-09-17T15:42:53.779Z,48.5
2023-09-17T15:44:08.018Z,47.1
2023-09-17T15:45:22.257Z,49.3
2023-09-17T15:46:35.512Z,50.4
2023-09-17T15:47:49.751Z,47.8
2023-09-17T15:49:03.990Z,50.1
2023-09-17T15:50:18.229Z,48.6
2023-09-17T15:51:32.467Z,48.1
2023-09-17T15:52:46.708Z,48.3
2023-09-17T15:54:00.946Z,48
2023-09-17T15:55:15.185Z,47.1
2023-09-17T15:56:29.395Z,48.9
2023-09-17T15:57:43.663Z,47.1
2023-09-17T15:58:57.902Z,48.4
2023-09-17T16:00:12.141Z,47.4
2023-09-17T16:01:26.379Z,48.8
2023-09-17T16:02:39.634Z,49
2023-09-17T16:03:53.873Z,49.6
2023-09-17T16:05:08.112Z,50
2023-09-17T16:06:22.351Z,47.9
2023-09-17T16:07:36.567Z,48.7
2023-09-17T16:08:50.829Z,48.3
2023-09-17T16:10:05.067Z,49.3
2023-09-17T16:11:19.306Z,48
2023-09-17T16:12:33.546Z,48.6
2023-09-17T16:13:47.785Z,49.9
2023-09-17T16:15:02.024Z,48.4
2023-09-17T16:16:16.263Z,49.8
2023-09-17T16:17:30.502Z,48.9
2023-09-17T16:18:43.757Z,52.1
2023-09-17T16:19:57.996Z,49.8
2023-09-17T16:21:12.234Z,49.1
2023-09-17T16:22:26.473Z,49.9
2023-09-17T16:23:40.712Z,50.2
2023-09-17T16:24:54.951Z,51.1
2023-09-17T16:26:09.173Z,49.8
2023-09-17T16:27:23.428Z,50.5
2023-09-17T16:28:37.667Z,51.5
2023-09-17T16:29:51.905Z,51
2023-09-17T16:31:06.144Z,50.8
2023-09-17T16:32:20.382Z,51
2023-09-17T16:33:34.621Z,50.8
2023-09-17T16:34:47.876Z,51.5
2023-09-17T16:36:02.064Z,51.1
2023-09-17T16:37:16.304Z,50.8
2023-09-17T16:38:30.592Z,51.6
2023-09-17T16:39:44.830Z,52
2023-09-17T16:40:59.069Z,51
2023-09-17T16:42:13.308Z,52.1